sensor_id;sensor_type;location;lat;lon;timestamp;P1;durP1;ratioP1;P2;durP2;ratioP2
7527;SDS011;3805;49.006;8.514;2023-09-18T00:00:05;4.13;;;3.33;;
7527;SDS011;3805;49.006;8.514;2023-09-18T00:02:58;3.67;;;2.93;;
7527;SDS011;3805;49.006;8.514;2023-09-18T00:05:51;3.63;;;3.00;;
7527;SDS011;3805;49.006;8.514;2023-09-18T00:08:40;4.60;;;3.57;;
7527;SDS011;3805;49.006;8.514;2023-09-18T00:11:29;3.63;;;3.33;;
7527;SDS011;3805;49.006;8.514;2023-09-18T00:14:17;4.60;;;3.80;;
7527;SDS011;3805;49.006;8.514;2023-09-18T00:17:06;3.67;;;3.43;;
7527;SDS011;3805;49.006;8.514;2023-09-18T00:19:55;3.70;;;3.10;;
7527;SDS011;3805;49.006;8.514;2023-09-18T00:22:45;3.57;;;3.27;;
7527;SDS011;3805;49.006;8.514;2023-09-18T00:25:34;4.57;;;3.30;;
7527;SDS011;3805;49.006;8.514;2023-09-18T00:28:22;3.80;;;3.07;;
7527;SDS011;3805;49.006;8.514;2023-09-18T00:31:11;4.17;;;3.80;;
7527;SDS011;3805;49.006;8.514;2023-09-18T00:33:59;3.70;;;3.40;;
7527;SDS011;3805;49.006;8.514;2023-09-18T00:36:48;3.90;;;3.50;;
7527;SDS011;3805;49.006;8.514;2023-09-18T00:39:38;7.63;;;3.67;;
7527;SDS011;3805;49.006;8.514;2023-09-18T00:42:26;4.27;;;3.87;;
7527;SDS011;3805;49.006;8.514;2023-09-18T00:45:15;5.03;;;3.60;;
7527;SDS011;3805;49.006;8.514;2023-09-18T00:48:04;3.70;;;3.40;;
7527;SDS011;3805;49.006;8.514;2023-09-18T00:50:52;3.73;;;2.93;;
7527;SDS011;3805;49.006;8.514;2023-09-18T00:53:41;3.77;;;3.07;;
7527;SDS011;3805;49.006;8.514;2023-09-18T00:56:33;5.17;;;3.37;;
7527;SDS011;3805;49.006;8.514;2023-09-18T00:59:22;4.27;;;3.87;;
7527;SDS011;3805;49.006;8.514;2023-09-18T01:02:11;4.03;;;3.63;;
7527;SDS011;3805;49.006;8.514;2023-09-18T01:05:00;5.97;;;3.30;;
7527;SDS011;3805;49.006;8.514;2023-09-18T01:07:49;5.10;;;3.27;;
7527;SDS011;3805;49.006;8.514;2023-09-18T01:10:40;4.43;;;4.00;;
7527;SDS011;3805;49.006;8.514;2023-09-18T01:13:40;3.90;;;3.50;;
7527;SDS011;3805;49.006;8.514;2023-09-18T01:16:34;5.30;;;3.73;;
7527;SDS011;3805;49.006;8.514;2023-09-18T01:19:35;5.10;;;3.77;;
7527;SDS011;3805;49.006;8.514;2023-09-18T01:25:19;4.70;;;4.30;;
7527;SDS011;3805;49.006;8.514;2023-09-18T01:28:08;3.70;;;3.40;;
7527;SDS011;3805;49.006;8.514;2023-09-18T01:30:56;4.40;;;3.57;;
7527;SDS011;3805;49.006;8.514;2023-09-18T01:33:45;3.80;;;3.50;;
7527;SDS011;3805;49.006;8.514;2023-09-18T01:36:35;5.30;;;3.57;;
7527;SDS011;3805;49.006;8.514;2023-09-18T01:39:25;3.27;;;2.97;;
7527;SDS011;3805;49.006;8.514;2023-09-18T01:42:18;4.90;;;3.53;;
7527;SDS011;3805;49.006;8.514;2023-09-18T01:45:07;4.67;;;3.67;;
7527;SDS011;3805;49.006;8.514;2023-09-18T01:47:56;3.63;;;3.30;;
7527;SDS011;3805;49.006;8.514;2023-09-18T01:50:45;4.53;;;4.13;;
7527;SDS011;3805;49.006;8.514;2023-09-18T01:53:33;4.00;;;3.60;;
7527;SDS011;3805;49.006;8.514;2023-09-18T01:56:23;6.40;;;4.00;;
7527;SDS011;3805;49.006;8.514;2023-09-18T01:59:12;8.53;;;4.53;;
7527;SDS011;3805;49.006;8.514;2023-09-18T02:02:01;3.93;;;3.63;;
7527;SDS011;3805;49.006;8.514;2023-09-18T02:04:51;3.53;;;3.23;;
7527;SDS011;3805;49.006;8.514;2023-09-18T02:07:49;4.70;;;3.70;;
7527;SDS011;3805;49.006;8.514;2023-09-18T02:10:39;3.33;;;3.13;;
7527;SDS011;3805;49.006;8.514;2023-09-18T02:13:29;8.17;;;4.30;;
7527;SDS011;3805;49.006;8.514;2023-09-18T02:16:17;8.20;;;4.27;;
7527;SDS011;3805;49.006;8.514;2023-09-18T02:19:10;4.13;;;3.63;;
7527;SDS011;3805;49.006;8.514;2023-09-18T02:21:58;4.87;;;4.17;;
7527;SDS011;3805;49.006;8.514;2023-09-18T02:24:47;5.40;;;4.30;;
7527;SDS011;3805;49.006;8.514;2023-09-18T02:27:36;5.07;;;4.67;;
7527;SDS011;3805;49.006;8.514;2023-09-18T02:30:26;7.10;;;3.60;;
7527;SDS011;3805;49.006;8.514;2023-09-18T02:33:15;4.60;;;4.10;;
7527;SDS011;3805;49.006;8.514;2023-09-18T02:36:04;4.73;;;3.40;;
7527;SDS011;3805;49.006;8.514;2023-09-18T02:38:53;8.43;;;4.50;;
7527;SDS011;3805;49.006;8.514;2023-09-18T02:41:41;5.27;;;4.40;;
7527;SDS011;3805;49.006;8.514;2023-09-18T02:44:30;3.67;;;3.37;;
7527;SDS011;3805;49.006;8.514;2023-09-18T02:47:20;5.20;;;4.00;;
7527;SDS011;3805;49.006;8.514;2023-09-18T02:50:09;6.17;;;4.50;;
7527;SDS011;3805;49.006;8.514;2023-09-18T02:52:59;12.43;;;4.93;;
7527;SDS011;3805;49.006;8.514;2023-09-18T02:55:48;5.80;;;3.63;;
7527;SDS011;3805;49.006;8.514;2023-09-18T02:58:37;4.50;;;3.77;;
7527;SDS011;3805;49.006;8.514;2023-09-18T03:01:26;5.00;;;4.20;;
7527;SDS011;3805;49.006;8.514;2023-09-18T03:04:16;5.87;;;4.43;;
7527;SDS011;3805;49.006;8.514;2023-09-18T03:07:04;11.63;;;4.20;;
7527;SDS011;3805;49.006;8.514;2023-09-18T03:09:53;5.70;;;4.53;;
7527;SDS011;3805;49.006;8.514;2023-09-18T03:12:42;6.70;;;4.33;;
7527;SDS011;3805;49.006;8.514;2023-09-18T03:15:31;15.63;;;4.20;;
7527;SDS011;3805;49.006;8.514;2023-09-18T03:18:20;9.10;;;4.03;;
7527;SDS011;3805;49.006;8.514;2023-09-18T03:21:10;4.93;;;4.33;;
7527;SDS011;3805;49.006;8.514;2023-09-18T03:23:58;5.90;;;4.43;;
7527;SDS011;3805;49.006;8.514;2023-09-18T03:26:47;5.87;;;4.10;;
7527;SDS011;3805;49.006;8.514;2023-09-18T03:29:36;10.93;;;5.00;;
7527;SDS011;3805;49.006;8.514;2023-09-18T03:32:25;8.60;;;4.40;;
7527;SDS011;3805;49.006;8.514;2023-09-18T03:35:13;11.50;;;4.53;;
7527;SDS011;3805;49.006;8.514;2023-09-18T03:38:06;8.63;;;4.13;;
7527;SDS011;3805;49.006;8.514;2023-09-18T03:40:55;7.07;;;4.07;;
7527;SDS011;3805;49.006;8.514;2023-09-18T03:43:43;6.20;;;4.10;;
7527;SDS011;3805;49.006;8.514;2023-09-18T03:46:32;4.77;;;4.30;;
7527;SDS011;3805;49.006;8.514;2023-09-18T03:49:20;8.40;;;5.00;;
7527;SDS011;3805;49.006;8.514;2023-09-18T03:52:09;9.00;;;4.80;;
7527;SDS011;3805;49.006;8.514;2023-09-18T03:54:59;9.90;;;5.03;;
7527;SDS011;3805;49.006;8.514;2023-09-18T03:57:47;4.10;;;3.70;;
7527;SDS011;3805;49.006;8.514;2023-09-18T04:00:36;8.70;;;4.00;;
7527;SDS011;3805;49.006;8.514;2023-09-18T04:03:24;10.33;;;3.53;;
7527;SDS011;3805;49.006;8.514;2023-09-18T04:06:13;5.93;;;4.10;;
7527;SDS011;3805;49.006;8.514;2023-09-18T04:09:01;7.73;;;3.77;;
7527;SDS011;3805;49.006;8.514;2023-09-18T04:11:51;13.80;;;4.40;;
7527;SDS011;3805;49.006;8.514;2023-09-18T04:14:42;11.93;;;6.33;;
7527;SDS011;3805;49.006;8.514;2023-09-18T04:17:30;7.33;;;4.20;;
7527;SDS011;3805;49.006;8.514;2023-09-18T04:20:19;14.27;;;5.87;;
7527;SDS011;3805;49.006;8.514;2023-09-18T04:23:18;10.73;;;5.40;;
7527;SDS011;3805;49.006;8.514;2023-09-18T04:26:09;9.60;;;4.70;;
7527;SDS011;3805;49.006;8.514;2023-09-18T04:28:59;9.63;;;4.23;;
7527;SDS011;3805;49.006;8.514;2023-09-18T04:31:48;7.97;;;4.30;;
7527;SDS011;3805;49.006;8.514;2023-09-18T04:34:37;9.97;;;4.70;;
7527;SDS011;3805;49.006;8.514;2023-09-18T04:37:26;5.27;;;4.20;;
7527;SDS011;3805;49.006;8.514;2023-09-18T04:40:15;8.53;;;4.30;;
7527;SDS011;3805;49.006;8.514;2023-09-18T04:43:04;8.77;;;4.27;;
7527;SDS011;3805;49.006;8.514;2023-09-18T04:45:54;14.47;;;5.43;;
7527;SDS011;3805;49.006;8.514;2023-09-18T04:48:42;6.07;;;4.43;;
7527;SDS011;3805;49.006;8.514;2023-09-18T04:51:31;8.73;;;4.70;;
7527;SDS011;3805;49.006;8.514;2023-09-18T04:54:20;8.83;;;4.77;;
7527;SDS011;3805;49.006;8.514;2023-09-18T04:57:08;8.40;;;5.17;;
7527;SDS011;3805;49.006;8.514;2023-09-18T04:59:57;10.20;;;4.17;;
7527;SDS011;3805;49.006;8.514;2023-09-18T05:03:05;13.30;;;4.10;;
7527;SDS011;3805;49.006;8.514;2023-09-18T05:05:55;7.43;;;4.80;;
7527;SDS011;3805;49.006;8.514;2023-09-18T05:08:45;7.17;;;4.30;;
7527;SDS011;3805;49.006;8.514;2023-09-18T05:11:34;10.10;;;4.70;;
7527;SDS011;3805;49.006;8.514;2023-09-18T05:14:23;12.27;;;4.47;;
7527;SDS011;3805;49.006;8.514;2023-09-18T05:17:13;10.43;;;5.40;;
7527;SDS011;3805;49.006;8.514;2023-09-18T05:20:05;7.43;;;4.30;;
7527;SDS011;3805;49.006;8.514;2023-09-18T05:22:55;7.57;;;4.13;;
7527;SDS011;3805;49.006;8.514;2023-09-18T05:25:44;7.80;;;4.10;;
7527;SDS011;3805;49.006;8.514;2023-09-18T05:28:32;6.93;;;4.77;;
7527;SDS011;3805;49.006;8.514;2023-09-18T05:31:21;7.30;;;3.90;;
7527;SDS011;3805;49.006;8.514;2023-09-18T05:34:09;8.40;;;4.73;;
7527;SDS011;3805;49.006;8.514;2023-09-18T05:36:59;6.73;;;4.40;;
7527;SDS011;3805;49.006;8.514;2023-09-18T05:39:48;7.50;;;4.00;;
7527;SDS011;3805;49.006;8.514;2023-09-18T05:42:36;9.37;;;4.73;;
7527;SDS011;3805;49.006;8.514;2023-09-18T05:45:25;9.57;;;4.10;;
7527;SDS011;3805;49.006;8.514;2023-09-18T05:48:15;13.10;;;4.90;;
7527;SDS011;3805;49.006;8.514;2023-09-18T05:51:03;4.53;;;4.13;;
7527;SDS011;3805;49.006;8.514;2023-09-18T05:53:53;9.10;;;4.80;;
7527;SDS011;3805;49.006;8.514;2023-09-18T05:56:42;7.33;;;4.33;;
7527;SDS011;3805;49.006;8.514;2023-09-18T05:59:31;9.63;;;4.17;;
7527;SDS011;3805;49.006;8.514;2023-09-18T06:02:19;10.00;;;5.00;;
7527;SDS011;3805;49.006;8.514;2023-09-18T06:05:08;6.07;;;3.80;;
7527;SDS011;3805;49.006;8.514;2023-09-18T06:07:59;8.83;;;3.93;;
7527;SDS011;3805;49.006;8.514;2023-09-18T06:10:49;7.93;;;4.63;;
7527;SDS011;3805;49.006;8.514;2023-09-18T06:13:37;10.93;;;4.97;;
7527;SDS011;3805;49.006;8.514;2023-09-18T06:16:26;9.30;;;4.27;;
7527;SDS011;3805;49.006;8.514;2023-09-18T06:19:14;6.20;;;4.20;;
7527;SDS011;3805;49.006;8.514;2023-09-18T06:22:04;6.60;;;3.90;;
7527;SDS011;3805;49.006;8.514;2023-09-18T06:24:54;5.20;;;3.60;;
7527;SDS011;3805;49.006;8.514;2023-09-18T06:27:44;7.97;;;4.23;;
7527;SDS011;3805;49.006;8.514;2023-09-18T06:30:33;9.80;;;4.03;;
7527;SDS011;3805;49.006;8.514;2023-09-18T06:33:23;7.73;;;4.00;;
7527;SDS011;3805;49.006;8.514;2023-09-18T06:36:12;8.27;;;4.17;;
7527;SDS011;3805;49.006;8.514;2023-09-18T06:39:01;6.27;;;4.30;;
7527;SDS011;3805;49.006;8.514;2023-09-18T06:41:53;6.27;;;3.63;;
7527;SDS011;3805;49.006;8.514;2023-09-18T06:44:43;10.33;;;4.30;;
7527;SDS011;3805;49.006;8.514;2023-09-18T06:47:31;8.23;;;4.50;;
7527;SDS011;3805;49.006;8.514;2023-09-18T06:50:20;5.60;;;3.33;;
7527;SDS011;3805;49.006;8.514;2023-09-18T06:53:08;11.87;;;4.80;;
7527;SDS011;3805;49.006;8.514;2023-09-18T06:55:57;8.70;;;4.77;;
7527;SDS011;3805;49.006;8.514;2023-09-18T06:58:46;8.10;;;3.83;;
7527;SDS011;3805;49.006;8.514;2023-09-18T07:01:40;7.47;;;4.07;;
7527;SDS011;3805;49.006;8.514;2023-09-18T07:04:29;12.13;;;4.57;;
7527;SDS011;3805;49.006;8.514;2023-09-18T07:07:18;7.03;;;4.10;;
7527;SDS011;3805;49.006;8.514;2023-09-18T07:10:12;5.20;;;4.00;;
7527;SDS011;3805;49.006;8.514;2023-09-18T07:13:00;10.53;;;4.30;;
7527;SDS011;3805;49.006;8.514;2023-09-18T07:15:49;4.97;;;4.30;;
7527;SDS011;3805;49.006;8.514;2023-09-18T07:18:39;8.90;;;4.93;;
7527;SDS011;3805;49.006;8.514;2023-09-18T07:21:28;7.77;;;4.50;;
7527;SDS011;3805;49.006;8.514;2023-09-18T07:24:19;4.57;;;3.90;;
7527;SDS011;3805;49.006;8.514;2023-09-18T07:27:08;7.70;;;4.67;;
7527;SDS011;3805;49.006;8.514;2023-09-18T07:29:56;10.53;;;4.30;;
7527;SDS011;3805;49.006;8.514;2023-09-18T07:32:45;8.10;;;4.40;;
7527;SDS011;3805;49.006;8.514;2023-09-18T07:35:35;9.30;;;5.27;;
7527;SDS011;3805;49.006;8.514;2023-09-18T07:38:24;10.30;;;4.27;;
7527;SDS011;3805;49.006;8.514;2023-09-18T07:41:13;9.80;;;3.50;;
7527;SDS011;3805;49.006;8.514;2023-09-18T07:44:02;3.73;;;3.30;;
7527;SDS011;3805;49.006;8.514;2023-09-18T07:46:51;8.30;;;3.50;;
7527;SDS011;3805;49.006;8.514;2023-09-18T07:49:41;6.80;;;2.90;;
7527;SDS011;3805;49.006;8.514;2023-09-18T07:52:31;9.20;;;3.60;;
7527;SDS011;3805;49.006;8.514;2023-09-18T07:55:19;7.60;;;3.73;;
7527;SDS011;3805;49.006;8.514;2023-09-18T07:58:08;5.30;;;3.00;;
7527;SDS011;3805;49.006;8.514;2023-09-18T08:00:57;8.63;;;2.70;;
7527;SDS011;3805;49.006;8.514;2023-09-18T08:03:47;3.30;;;3.00;;
7527;SDS011;3805;49.006;8.514;2023-09-18T08:06:36;4.80;;;2.53;;
7527;SDS011;3805;49.006;8.514;2023-09-18T08:09:26;7.47;;;3.07;;
7527;SDS011;3805;49.006;8.514;2023-09-18T08:12:16;6.20;;;3.10;;
7527;SDS011;3805;49.006;8.514;2023-09-18T08:15:05;4.50;;;3.00;;
7527;SDS011;3805;49.006;8.514;2023-09-18T08:17:55;6.40;;;3.40;;
7527;SDS011;3805;49.006;8.514;2023-09-18T08:20:44;6.90;;;2.70;;
7527;SDS011;3805;49.006;8.514;2023-09-18T08:23:33;3.97;;;3.17;;
7527;SDS011;3805;49.006;8.514;2023-09-18T08:26:23;4.80;;;2.60;;
7527;SDS011;3805;49.006;8.514;2023-09-18T08:29:14;4.83;;;2.43;;
7527;SDS011;3805;49.006;8.514;2023-09-18T08:32:03;3.43;;;2.60;;
7527;SDS011;3805;49.006;8.514;2023-09-18T08:34:53;3.93;;;2.60;;
7527;SDS011;3805;49.006;8.514;2023-09-18T08:37:42;7.73;;;2.73;;
7527;SDS011;3805;49.006;8.514;2023-09-18T08:40:32;2.97;;;2.23;;
7527;SDS011;3805;49.006;8.514;2023-09-18T08:43:23;3.23;;;2.53;;
7527;SDS011;3805;49.006;8.514;2023-09-18T08:46:12;2.83;;;2.10;;
7527;SDS011;3805;49.006;8.514;2023-09-18T08:49:01;4.33;;;2.87;;
7527;SDS011;3805;49.006;8.514;2023-09-18T08:51:50;4.93;;;2.40;;
7527;SDS011;3805;49.006;8.514;2023-09-18T08:54:39;6.40;;;2.63;;
7527;SDS011;3805;49.006;8.514;2023-09-18T08:57:30;3.57;;;2.60;;
7527;SDS011;3805;49.006;8.514;2023-09-18T09:00:21;4.80;;;2.57;;
7527;SDS011;3805;49.006;8.514;2023-09-18T09:03:09;3.30;;;2.47;;
7527;SDS011;3805;49.006;8.514;2023-09-18T09:05:58;2.50;;;2.23;;
7527;SDS011;3805;49.006;8.514;2023-09-18T09:08:49;4.10;;;2.10;;
7527;SDS011;3805;49.006;8.514;2023-09-18T09:11:38;4.60;;;2.87;;
7527;SDS011;3805;49.006;8.514;2023-09-18T09:14:27;3.90;;;2.50;;
7527;SDS011;3805;49.006;8.514;2023-09-18T09:17:19;7.43;;;2.77;;
7527;SDS011;3805;49.006;8.514;2023-09-18T09:20:08;2.30;;;2.10;;
7527;SDS011;3805;49.006;8.514;2023-09-18T09:23:01;6.17;;;2.20;;
7527;SDS011;3805;49.006;8.514;2023-09-18T09:25:50;3.43;;;2.23;;
7527;SDS011;3805;49.006;8.514;2023-09-18T09:28:40;4.93;;;2.33;;
7527;SDS011;3805;49.006;8.514;2023-09-18T09:31:30;3.13;;;2.27;;
7527;SDS011;3805;49.006;8.514;2023-09-18T09:34:25;2.57;;;2.30;;
7527;SDS011;3805;49.006;8.514;2023-09-18T09:37:15;5.33;;;2.30;;
7527;SDS011;3805;49.006;8.514;2023-09-18T09:40:05;2.67;;;2.30;;
7527;SDS011;3805;49.006;8.514;2023-09-18T09:42:57;10.17;;;2.60;;
7527;SDS011;3805;49.006;8.514;2023-09-18T09:45:48;4.57;;;2.00;;
7527;SDS011;3805;49.006;8.514;2023-09-18T09:48:40;5.43;;;2.20;;
7527;SDS011;3805;49.006;8.514;2023-09-18T09:51:32;4.73;;;2.40;;
7527;SDS011;3805;49.006;8.514;2023-09-18T09:54:31;4.37;;;2.27;;
7527;SDS011;3805;49.006;8.514;2023-09-18T09:57:21;4.23;;;2.00;;
7527;SDS011;3805;49.006;8.514;2023-09-18T10:00:10;4.23;;;2.00;;
7527;SDS011;3805;49.006;8.514;2023-09-18T10:03:12;4.30;;;2.10;;
7527;SDS011;3805;49.006;8.514;2023-09-18T10:06:02;1.60;;;1.50;;
7527;SDS011;3805;49.006;8.514;2023-09-18T10:08:57;2.97;;;1.90;;
7527;SDS011;3805;49.006;8.514;2023-09-18T10:11:48;2.90;;;1.80;;
7527;SDS011;3805;49.006;8.514;2023-09-18T10:14:40;5.17;;;1.80;;
7527;SDS011;3805;49.006;8.514;2023-09-18T10:17:47;3.30;;;2.90;;
7527;SDS011;3805;49.006;8.514;2023-09-18T10:20:39;5.67;;;3.10;;
7527;SDS011;3805;49.006;8.514;2023-09-18T10:23:33;3.70;;;1.93;;
7527;SDS011;3805;49.006;8.514;2023-09-18T10:26:29;2.37;;;1.60;;
7527;SDS011;3805;49.006;8.514;2023-09-18T10:29:18;6.63;;;1.70;;
7527;SDS011;3805;49.006;8.514;2023-09-18T10:32:08;2.63;;;1.87;;
7527;SDS011;3805;49.006;8.514;2023-09-18T10:34:56;4.23;;;1.60;;
7527;SDS011;3805;49.006;8.514;2023-09-18T10:37:48;3.93;;;2.10;;
7527;SDS011;3805;49.006;8.514;2023-09-18T10:40:38;2.70;;;1.70;;
7527;SDS011;3805;49.006;8.514;2023-09-18T10:43:28;3.27;;;1.87;;
7527;SDS011;3805;49.006;8.514;2023-09-18T10:46:17;3.03;;;1.90;;
7527;SDS011;3805;49.006;8.514;2023-09-18T10:49:06;1.90;;;1.80;;
7527;SDS011;3805;49.006;8.514;2023-09-18T10:51:55;2.90;;;1.70;;
7527;SDS011;3805;49.006;8.514;2023-09-18T10:54:45;2.87;;;1.57;;
7527;SDS011;3805;49.006;8.514;2023-09-18T10:57:33;1.70;;;1.60;;
7527;SDS011;3805;49.006;8.514;2023-09-18T11:00:26;1.93;;;1.30;;
7527;SDS011;3805;49.006;8.514;2023-09-18T11:03:15;3.87;;;1.63;;
7527;SDS011;3805;49.006;8.514;2023-09-18T11:06:06;3.33;;;1.40;;
7527;SDS011;3805;49.006;8.514;2023-09-18T11:08:59;2.50;;;1.70;;
7527;SDS011;3805;49.006;8.514;2023-09-18T11:11:51;2.37;;;1.40;;
7527;SDS011;3805;49.006;8.514;2023-09-18T11:14:44;2.67;;;1.90;;
7527;SDS011;3805;49.006;8.514;2023-09-18T11:17:37;1.53;;;1.30;;
7527;SDS011;3805;49.006;8.514;2023-09-18T11:20:28;1.70;;;1.50;;
7527;SDS011;3805;49.006;8.514;2023-09-18T11:23:16;2.37;;;1.80;;
7527;SDS011;3805;49.006;8.514;2023-09-18T11:26:07;7.23;;;1.70;;
7527;SDS011;3805;49.006;8.514;2023-09-18T11:28:55;2.60;;;1.30;;
7527;SDS011;3805;49.006;8.514;2023-09-18T11:31:45;5.00;;;1.57;;
7527;SDS011;3805;49.006;8.514;2023-09-18T11:34:37;3.83;;;1.50;;
7527;SDS011;3805;49.006;8.514;2023-09-18T11:37:28;2.57;;;1.37;;
7527;SDS011;3805;49.006;8.514;2023-09-18T11:40:28;1.60;;;1.40;;
7527;SDS011;3805;49.006;8.514;2023-09-18T11:43:24;2.43;;;1.60;;
7527;SDS011;3805;49.006;8.514;2023-09-18T11:46:20;1.30;;;1.20;;
7527;SDS011;3805;49.006;8.514;2023-09-18T11:49:09;2.10;;;1.90;;
7527;SDS011;3805;49.006;8.514;2023-09-18T11:52:00;1.93;;;1.50;;
7527;SDS011;3805;49.006;8.514;2023-09-18T11:54:50;3.07;;;1.70;;
7527;SDS011;3805;49.006;8.514;2023-09-18T11:57:39;1.57;;;1.47;;
7527;SDS011;3805;49.006;8.514;2023-09-18T12:00:30;1.50;;;1.30;;
7527;SDS011;3805;49.006;8.514;2023-09-18T12:03:19;1.77;;;1.53;;
7527;SDS011;3805;49.006;8.514;2023-09-18T12:06:13;3.50;;;1.37;;
7527;SDS011;3805;49.006;8.514;2023-09-18T12:09:04;3.30;;;1.50;;
7527;SDS011;3805;49.006;8.514;2023-09-18T12:11:53;1.80;;;1.50;;
7527;SDS011;3805;49.006;8.514;2023-09-18T12:14:44;1.43;;;1.33;;
7527;SDS011;3805;49.006;8.514;2023-09-18T12:17:33;3.77;;;1.90;;
7527;SDS011;3805;49.006;8.514;2023-09-18T12:20:21;2.67;;;1.40;;
7527;SDS011;3805;49.006;8.514;2023-09-18T12:23:10;2.27;;;1.30;;
7527;SDS011;3805;49.006;8.514;2023-09-18T12:26:00;2.70;;;1.60;;
7527;SDS011;3805;49.006;8.514;2023-09-18T12:28:50;4.07;;;1.73;;
7527;SDS011;3805;49.006;8.514;2023-09-18T12:31:39;2.10;;;1.70;;
7527;SDS011;3805;49.006;8.514;2023-09-18T12:34:29;1.67;;;1.50;;
7527;SDS011;3805;49.006;8.514;2023-09-18T12:37:18;3.80;;;1.50;;
7527;SDS011;3805;49.006;8.514;2023-09-18T12:40:07;1.40;;;1.20;;
7527;SDS011;3805;49.006;8.514;2023-09-18T12:43:00;2.87;;;1.70;;
7527;SDS011;3805;49.006;8.514;2023-09-18T12:45:49;2.23;;;1.40;;
7527;SDS011;3805;49.006;8.514;2023-09-18T12:48:38;2.30;;;1.50;;
7527;SDS011;3805;49.006;8.514;2023-09-18T12:51:32;2.27;;;1.30;;
7527;SDS011;3805;49.006;8.514;2023-09-18T12:54:21;3.67;;;1.37;;
7527;SDS011;3805;49.006;8.514;2023-09-18T12:57:10;2.93;;;1.50;;
7527;SDS011;3805;49.006;8.514;2023-09-18T13:00:00;1.60;;;1.50;;
7527;SDS011;3805;49.006;8.514;2023-09-18T13:02:57;1.60;;;1.33;;
7527;SDS011;3805;49.006;8.514;2023-09-18T13:05:47;2.10;;;1.60;;
7527;SDS011;3805;49.006;8.514;2023-09-18T13:08:39;4.20;;;1.60;;
7527;SDS011;3805;49.006;8.514;2023-09-18T13:11:28;4.13;;;1.40;;
7527;SDS011;3805;49.006;8.514;2023-09-18T13:14:17;2.13;;;1.50;;
7527;SDS011;3805;49.006;8.514;2023-09-18T13:17:06;2.30;;;1.20;;
7527;SDS011;3805;49.006;8.514;2023-09-18T13:19:55;1.70;;;1.40;;
7527;SDS011;3805;49.006;8.514;2023-09-18T13:22:47;2.17;;;1.47;;
7527;SDS011;3805;49.006;8.514;2023-09-18T13:25:36;2.30;;;1.57;;
7527;SDS011;3805;49.006;8.514;2023-09-18T13:28:27;2.20;;;1.47;;
7527;SDS011;3805;49.006;8.514;2023-09-18T13:31:17;1.50;;;1.20;;
7527;SDS011;3805;49.006;8.514;2023-09-18T13:34:08;4.63;;;1.53;;
7527;SDS011;3805;49.006;8.514;2023-09-18T13:36:57;1.93;;;1.67;;
7527;SDS011;3805;49.006;8.514;2023-09-18T13:39:45;3.40;;;1.70;;
7527;SDS011;3805;49.006;8.514;2023-09-18T13:42:34;2.43;;;1.47;;
7527;SDS011;3805;49.006;8.514;2023-09-18T13:45:22;2.83;;;1.97;;
7527;SDS011;3805;49.006;8.514;2023-09-18T13:48:11;2.20;;;1.60;;
7527;SDS011;3805;49.006;8.514;2023-09-18T13:51:03;2.80;;;1.47;;
7527;SDS011;3805;49.006;8.514;2023-09-18T13:53:52;1.80;;;1.53;;
7527;SDS011;3805;49.006;8.514;2023-09-18T13:56:43;1.90;;;1.40;;
7527;SDS011;3805;49.006;8.514;2023-09-18T13:59:32;1.60;;;1.20;;
7527;SDS011;3805;49.006;8.514;2023-09-18T14:02:20;1.50;;;1.23;;
7527;SDS011;3805;49.006;8.514;2023-09-18T14:05:10;1.83;;;1.73;;
7527;SDS011;3805;49.006;8.514;2023-09-18T14:08:05;4.70;;;1.90;;
7527;SDS011;3805;49.006;8.514;2023-09-18T14:10:54;1.70;;;1.60;;
7527;SDS011;3805;49.006;8.514;2023-09-18T14:13:42;2.07;;;1.83;;
7527;SDS011;3805;49.006;8.514;2023-09-18T14:16:31;1.87;;;1.20;;
7527;SDS011;3805;49.006;8.514;2023-09-18T14:19:20;3.30;;;1.67;;
7527;SDS011;3805;49.006;8.514;2023-09-18T14:22:09;2.10;;;1.80;;
7527;SDS011;3805;49.006;8.514;2023-09-18T14:24:59;2.40;;;2.00;;
7527;SDS011;3805;49.006;8.514;2023-09-18T14:27:51;2.13;;;1.50;;
7527;SDS011;3805;49.006;8.514;2023-09-18T14:30:39;2.33;;;1.57;;
7527;SDS011;3805;49.006;8.514;2023-09-18T14:33:28;2.57;;;2.00;;
7527;SDS011;3805;49.006;8.514;2023-09-18T14:36:17;4.90;;;1.73;;
7527;SDS011;3805;49.006;8.514;2023-09-18T14:39:06;3.20;;;1.83;;
7527;SDS011;3805;49.006;8.514;2023-09-18T14:41:57;2.27;;;2.07;;
7527;SDS011;3805;49.006;8.514;2023-09-18T14:44:46;2.00;;;1.63;;
7527;SDS011;3805;49.006;8.514;2023-09-18T14:47:35;3.60;;;1.80;;
7527;SDS011;3805;49.006;8.514;2023-09-18T14:50:24;2.47;;;2.20;;
7527;SDS011;3805;49.006;8.514;2023-09-18T14:53:12;4.70;;;1.73;;
7527;SDS011;3805;49.006;8.514;2023-09-18T14:56:01;2.97;;;1.60;;
7527;SDS011;3805;49.006;8.514;2023-09-18T14:58:52;2.53;;;1.80;;
7527;SDS011;3805;49.006;8.514;2023-09-18T15:01:42;3.30;;;1.97;;
7527;SDS011;3805;49.006;8.514;2023-09-18T15:04:31;1.73;;;1.60;;
7527;SDS011;3805;49.006;8.514;2023-09-18T15:07:20;3.00;;;1.63;;
7527;SDS011;3805;49.006;8.514;2023-09-18T15:10:09;3.43;;;2.00;;
7527;SDS011;3805;49.006;8.514;2023-09-18T15:12:58;2.43;;;1.60;;
7527;SDS011;3805;49.006;8.514;2023-09-18T15:15:48;2.53;;;1.70;;
7527;SDS011;3805;49.006;8.514;2023-09-18T15:18:37;2.50;;;1.70;;
7527;SDS011;3805;49.006;8.514;2023-09-18T15:21:27;1.73;;;1.40;;
7527;SDS011;3805;49.006;8.514;2023-09-18T15:24:15;3.10;;;1.70;;
7527;SDS011;3805;49.006;8.514;2023-09-18T15:27:05;1.80;;;1.70;;
7527;SDS011;3805;49.006;8.514;2023-09-18T15:29:53;1.80;;;1.40;;
7527;SDS011;3805;49.006;8.514;2023-09-18T15:32:47;2.50;;;1.77;;
7527;SDS011;3805;49.006;8.514;2023-09-18T15:35:38;3.63;;;1.67;;
7527;SDS011;3805;49.006;8.514;2023-09-18T15:38:27;2.40;;;1.67;;
7527;SDS011;3805;49.006;8.514;2023-09-18T15:41:17;2.33;;;1.53;;
7527;SDS011;3805;49.006;8.514;2023-09-18T15:44:05;3.30;;;1.50;;
7527;SDS011;3805;49.006;8.514;2023-09-18T15:46:57;1.83;;;1.60;;
7527;SDS011;3805;49.006;8.514;2023-09-18T15:49:47;2.43;;;1.50;;
7527;SDS011;3805;49.006;8.514;2023-09-18T15:52:36;1.63;;;1.40;;
7527;SDS011;3805;49.006;8.514;2023-09-18T15:55:25;3.67;;;2.10;;
7527;SDS011;3805;49.006;8.514;2023-09-18T15:58:13;2.07;;;1.90;;
7527;SDS011;3805;49.006;8.514;2023-09-18T16:01:04;5.27;;;1.93;;
7527;SDS011;3805;49.006;8.514;2023-09-18T16:03:58;5.00;;;2.03;;
7527;SDS011;3805;49.006;8.514;2023-09-18T16:06:49;2.20;;;1.40;;
7527;SDS011;3805;49.006;8.514;2023-09-18T16:09:38;2.00;;;1.70;;
7527;SDS011;3805;49.006;8.514;2023-09-18T16:12:27;3.83;;;1.77;;
7527;SDS011;3805;49.006;8.514;2023-09-18T16:15:16;1.93;;;1.80;;
7527;SDS011;3805;49.006;8.514;2023-09-18T16:18:05;2.03;;;1.50;;
7527;SDS011;3805;49.006;8.514;2023-09-18T16:20:54;1.97;;;1.70;;
7527;SDS011;3805;49.006;8.514;2023-09-18T16:23:44;3.63;;;1.93;;
7527;SDS011;3805;49.006;8.514;2023-09-18T16:26:33;1.50;;;1.40;;
7527;SDS011;3805;49.006;8.514;2023-09-18T16:29:23;3.47;;;2.00;;
7527;SDS011;3805;49.006;8.514;2023-09-18T16:32:12;1.70;;;1.60;;
7527;SDS011;3805;49.006;8.514;2023-09-18T16:35:00;2.00;;;1.60;;
7527;SDS011;3805;49.006;8.514;2023-09-18T16:37:51;4.43;;;1.57;;
7527;SDS011;3805;49.006;8.514;2023-09-18T16:40:41;2.70;;;1.87;;
7527;SDS011;3805;49.006;8.514;2023-09-18T16:43:30;1.60;;;1.50;;
7527;SDS011;3805;49.006;8.514;2023-09-18T16:46:22;3.00;;;1.93;;
7527;SDS011;3805;49.006;8.514;2023-09-18T16:49:10;2.03;;;1.83;;
7527;SDS011;3805;49.006;8.514;2023-09-18T16:52:01;3.07;;;1.93;;
7527;SDS011;3805;49.006;8.514;2023-09-18T16:54:51;2.10;;;1.60;;
7527;SDS011;3805;49.006;8.514;2023-09-18T16:57:43;2.70;;;1.93;;
7527;SDS011;3805;49.006;8.514;2023-09-18T17:00:33;2.60;;;1.60;;
7527;SDS011;3805;49.006;8.514;2023-09-18T17:03:22;2.60;;;1.80;;
7527;SDS011;3805;49.006;8.514;2023-09-18T17:06:11;1.90;;;1.70;;
7527;SDS011;3805;49.006;8.514;2023-09-18T17:09:19;1.73;;;1.63;;
7527;SDS011;3805;49.006;8.514;2023-09-18T17:12:07;3.00;;;2.40;;
7527;SDS011;3805;49.006;8.514;2023-09-18T17:14:58;2.27;;;2.07;;
7527;SDS011;3805;49.006;8.514;2023-09-18T17:17:47;1.97;;;1.77;;
7527;SDS011;3805;49.006;8.514;2023-09-18T17:20:36;2.00;;;1.80;;
7527;SDS011;3805;49.006;8.514;2023-09-18T17:23:25;2.03;;;1.70;;
7527;SDS011;3805;49.006;8.514;2023-09-18T17:26:13;6.47;;;2.50;;
7527;SDS011;3805;49.006;8.514;2023-09-18T17:29:02;4.77;;;2.40;;
7527;SDS011;3805;49.006;8.514;2023-09-18T17:31:53;7.00;;;2.87;;
7527;SDS011;3805;49.006;8.514;2023-09-18T17:34:42;2.70;;;1.40;;
7527;SDS011;3805;49.006;8.514;2023-09-18T17:37:33;4.60;;;1.90;;